createdAt,value
2018-11-10T00:00:18.659Z,100.00
2018-11-10T00:02:49.711Z,100.00
2018-11-10T00:05:19.590Z,100.00
2018-11-10T00:07:49.438Z,100.00
2018-11-10T00:10:19.439Z,100.00
2018-11-10T00:12:49.176Z,100.00
2018-11-10T00:15:18.386Z,100.00
2018-11-10T00:17:47.586Z,100.00
2018-11-10T00:20:16.779Z,100.00
2018-11-10T00:22:45.982Z,100.00
2018-11-10T00:25:15.663Z,100.00
2018-11-10T00:27:45.999Z,100.00
2018-11-10T00:30:17.358Z,100.00
2018-11-10T00:32:46.973Z,100.00
2018-11-10T00:35:16.183Z,100.00
2018-11-10T00:37:45.388Z,100.00
2018-11-10T00:40:15.638Z,100.00
2018-11-10T00:42:45.100Z,100.00
2018-11-10T00:45:14.393Z,100.00
2018-11-10T00:47:43.599Z,100.00
2018-11-10T00:50:12.808Z,100.00
2018-11-10T00:52:42.013Z,100.00
2018-11-10T00:55:11.207Z,100.00
2018-11-10T00:57:40.410Z,100.00
2018-11-10T01:00:11.360Z,100.00
2018-11-10T01:02:41.173Z,100.00
2018-11-10T01:05:10.375Z,100.00
2018-11-10T01:07:39.991Z,100.00
2018-11-10T01:10:12.047Z,100.00
2018-11-10T01:12:41.325Z,100.00
2018-11-10T01:15:13.385Z,100.00
2018-11-10T01:17:43.091Z,100.00
2018-11-10T01:20:12.939Z,100.00
2018-11-10T01:22:42.123Z,100.00
2018-11-10T01:25:11.976Z,100.00
2018-11-10T01:27:41.206Z,100.00
2018-11-10T01:30:13.902Z,100.00
2018-11-10T01:32:44.074Z,100.00
2018-11-10T01:35:13.519Z,100.00
2018-11-10T01:37:42.747Z,100.00
2018-11-10T01:40:13.346Z,100.00
2018-11-10T01:42:43.314Z,100.00
2018-11-10T01:45:14.702Z,100.00
2018-11-10T01:47:44.342Z,100.00
2018-11-10T01:50:13.595Z,100.00
2018-11-10T01:52:43.939Z,100.00
2018-11-10T01:55:13.341Z,100.00
2018-11-10T01:57:43.362Z,100.00
2018-11-10T02:00:16.667Z,100.00
2018-11-10T02:02:46.470Z,100.00
2018-11-10T02:05:16.233Z,100.00
2018-11-10T02:07:45.590Z,100.00
2018-11-10T02:10:14.870Z,100.00
2018-11-10T02:12:44.080Z,100.00
2018-11-10T02:15:15.238Z,100.00
2018-11-10T02:17:44.443Z,100.00
2018-11-10T02:20:14.515Z,100.00
2018-11-10T02:22:43.802Z,100.00
2018-11-10T02:25:13.355Z,100.00
2018-11-10T02:27:42.546Z,100.00
2018-11-10T02:30:12.227Z,100.00
2018-11-10T02:32:42.898Z,100.00
2018-11-10T02:35:12.331Z,100.00
2018-11-10T02:37:41.767Z,100.00
2018-11-10T02:40:13.066Z,100.00
2018-11-10T02:42:42.302Z,100.00
2018-11-10T02:45:12.826Z,100.00
2018-11-10T02:47:42.449Z,100.00
2018-11-10T02:50:11.656Z,100.00
2018-11-10T02:52:40.913Z,100.00
2018-11-10T02:55:10.889Z,100.00
2018-11-10T02:57:40.286Z,100.00
2018-11-10T03:00:11.030Z,100.00
2018-11-10T03:02:40.423Z,100.00
2018-11-10T03:05:10.099Z,100.00
2018-11-10T03:07:39.855Z,100.00
2018-11-10T03:10:10.375Z,100.00
2018-11-10T03:12:40.494Z,100.00
2018-11-10T03:15:10.710Z,100.00
2018-11-10T03:17:39.953Z,100.00
2018-11-10T03:20:12.397Z,100.00
2018-11-10T03:22:41.867Z,100.00
2018-11-10T03:25:11.514Z,100.00
2018-11-10T03:27:40.926Z,100.00
2018-11-10T03:30:10.435Z,100.00
2018-11-10T03:32:39.639Z,100.00
2018-11-10T03:35:09.558Z,100.00
2018-11-10T03:37:40.602Z,100.00
2018-11-10T03:40:11.489Z,100.00
2018-11-10T03:42:41.046Z,100.00
2018-11-10T03:45:11.662Z,100.00
2018-11-10T03:50:41.067Z,100.00
2018-11-10T03:53:10.348Z,100.00
2018-11-10T03:55:39.547Z,100.00
2018-11-10T03:58:08.772Z,100.00
2018-11-10T04:00:37.978Z,100.00
2018-11-10T04:03:07.182Z,100.00
2018-11-10T04:05:36.392Z,100.00
2018-11-10T04:08:05.947Z,100.00
2018-11-10T04:10:35.147Z,100.00
2018-11-10T04:13:04.370Z,100.00
2018-11-10T04:15:33.589Z,100.00
2018-11-10T04:18:02.799Z,100.00
2018-11-10T04:20:32.002Z,100.00
2018-11-10T04:23:01.215Z,100.00
2018-11-10T04:25:30.430Z,100.00
2018-11-10T04:27:59.636Z,100.00
2018-11-10T04:30:28.861Z,100.00
2018-11-10T04:32:58.091Z,100.00
2018-11-10T04:35:27.306Z,100.00
2018-11-10T04:37:56.595Z,100.00
2018-11-10T04:40:25.815Z,100.00
2018-11-10T04:42:54.988Z,100.00
2018-11-10T04:45:24.198Z,100.00
2018-11-10T04:47:53.408Z,100.00
2018-11-10T04:50:22.610Z,100.00
2018-11-10T04:52:51.807Z,100.00
2018-11-10T04:55:21.015Z,100.00
2018-11-10T04:57:50.211Z,100.00
2018-11-10T05:00:19.415Z,100.00
2018-11-10T05:02:48.615Z,100.00
2018-11-10T05:05:17.815Z,100.00
2018-11-10T05:07:47.023Z,100.00
2018-11-10T05:10:16.214Z,100.00
2018-11-10T05:12:45.426Z,100.00
2018-11-10T05:15:14.794Z,100.00
2018-11-10T05:17:43.993Z,100.00
2018-11-10T05:20:13.486Z,100.00
2018-11-10T05:22:42.667Z,100.00
2018-11-10T05:25:11.991Z,100.00
2018-11-10T05:27:41.417Z,100.00
2018-11-10T05:30:11.111Z,100.00
2018-11-10T05:32:40.367Z,100.00
2018-11-10T05:35:09.726Z,100.00
2018-11-10T05:37:38.983Z,100.00
2018-11-10T05:40:09.915Z,100.00
2018-11-10T05:42:39.210Z,100.00
2018-11-10T05:45:08.584Z,100.00
2018-11-10T05:47:37.862Z,100.00
2018-11-10T05:50:07.662Z,100.00
2018-11-10T05:52:36.855Z,100.00
2018-11-10T05:55:07.126Z,100.00
2018-11-10T05:57:36.303Z,100.00
2018-11-10T06:00:08.538Z,100.00
2018-11-10T06:02:37.908Z,100.00
2018-11-10T06:05:07.085Z,100.00
2018-11-10T06:07:36.286Z,100.00
2018-11-10T06:10:06.917Z,100.00
2018-11-10T06:12:35.986Z,100.00
2018-11-10T06:15:06.203Z,100.00
2018-11-10T06:17:35.403Z,100.00
2018-11-10T06:20:05.510Z,100.00
2018-11-10T06:22:34.690Z,100.00
2018-11-10T06:25:03.904Z,100.00
2018-11-10T06:27:33.147Z,100.00
2018-11-10T06:30:02.385Z,100.00
2018-11-10T06:35:15.375Z,100.00
2018-11-10T06:37:44.586Z,100.00
2018-11-10T06:40:14.549Z,100.00
2018-11-10T06:42:44.270Z,100.00
2018-11-10T06:45:14.503Z,100.00
2018-11-10T06:47:43.697Z,100.00
2018-11-10T06:50:13.123Z,100.00
2018-11-10T06:52:42.359Z,100.00
2018-11-10T06:55:11.920Z,100.00
2018-11-10T06:57:41.138Z,100.00
2018-11-10T07:00:12.860Z,100.00
2018-11-10T07:02:42.480Z,100.00
2018-11-10T07:05:12.320Z,100.00
2018-11-10T07:07:41.712Z,100.00
2018-11-10T07:10:11.567Z,100.00
2018-11-10T07:12:40.775Z,99.83
2018-11-10T07:15:10.369Z,99.24
2018-11-10T07:17:39.636Z,97.57
2018-11-10T07:20:08.843Z,94.89
2018-11-10T07:22:38.051Z,94.67
2018-11-10T07:25:07.619Z,93.75
2018-11-10T07:27:36.762Z,92.61
2018-11-10T07:30:09.153Z,89.42
2018-11-10T07:32:38.365Z,89.06
2018-11-10T07:35:08.543Z,88.60
2018-11-10T07:37:37.854Z,89.50
2018-11-10T07:40:09.499Z,88.43
2018-11-10T07:42:38.714Z,85.82
2018-11-10T07:45:09.822Z,82.15
2018-11-10T07:47:39.023Z,77.56
2018-11-10T07:50:08.994Z,78.45
2018-11-10T07:52:38.617Z,78.28
2018-11-10T07:55:09.025Z,80.02
2018-11-10T07:57:38.221Z,79.99
2018-11-10T08:00:12.807Z,79.93
2018-11-10T08:02:42.285Z,77.40
2018-11-10T08:05:12.185Z,74.97
2018-11-10T08:07:42.150Z,73.47
2018-11-10T08:10:12.035Z,70.41
2018-11-10T08:12:41.223Z,69.04
2018-11-10T08:15:13.635Z,64.48
2018-11-10T08:17:42.853Z,61.40
2018-11-10T08:20:12.631Z,60.78
2018-11-10T08:22:41.840Z,60.18
2018-11-10T08:25:13.094Z,56.28
2018-11-10T08:27:42.466Z,56.61
2018-11-10T08:30:13.109Z,53.93
2018-11-10T08:32:42.725Z,48.90
2018-11-10T08:35:12.845Z,49.00
2018-11-10T08:37:42.069Z,46.24
2018-11-10T08:40:15.856Z,46.48
2018-11-10T08:42:45.050Z,45.84
2018-11-10T08:45:14.984Z,50.29
2018-11-10T08:47:44.807Z,43.56
2018-11-10T08:50:15.082Z,45.16
2018-11-10T08:52:44.298Z,47.81
2018-11-10T08:55:14.054Z,56.85
2018-11-10T08:57:43.720Z,65.15
2018-11-10T09:00:13.151Z,68.89
2018-11-10T09:02:42.348Z,72.37
2018-11-10T09:05:12.319Z,74.62
2018-11-10T09:07:41.720Z,77.33
2018-11-10T09:10:12.605Z,78.84
2018-11-10T09:12:42.016Z,81.08
2018-11-10T09:15:13.311Z,81.20
2018-11-10T09:17:42.644Z,78.31
2018-11-10T09:20:13.423Z,75.90
2018-11-10T09:22:43.067Z,71.64
2018-11-10T09:25:13.633Z,71.95
2018-11-10T09:27:42.869Z,73.15
2018-11-10T09:30:13.464Z,74.37
2018-11-10T09:32:42.930Z,72.57
2018-11-10T09:35:13.082Z,69.37
2018-11-10T09:37:42.304Z,64.57
2018-11-10T09:40:14.468Z,60.19
2018-11-10T09:42:43.932Z,60.90
2018-11-10T09:45:14.115Z,60.83
2018-11-10T09:47:43.344Z,62.83
2018-11-10T09:50:15.304Z,66.05
2018-11-10T09:52:44.886Z,68.92
2018-11-10T09:55:14.790Z,71.16
2018-11-10T09:57:43.998Z,69.77
2018-11-10T10:00:16.034Z,70.67
2018-11-10T10:02:45.533Z,70.21
2018-11-10T10:05:14.558Z,69.18
2018-11-10T10:07:44.973Z,69.27
2018-11-10T10:10:16.813Z,68.67
2018-11-10T10:12:46.310Z,70.15
2018-11-10T10:15:16.755Z,69.40
2018-11-10T10:17:46.374Z,68.58
2018-11-10T10:20:17.419Z,67.75
2018-11-10T10:22:47.506Z,66.68
2018-11-10T10:25:17.438Z,64.97
2018-11-10T10:27:47.514Z,64.35
2018-11-10T10:30:18.367Z,60.93
2018-11-10T10:32:48.538Z,57.79
2018-11-10T10:35:17.933Z,53.13
2018-11-10T10:37:47.763Z,48.62
2018-11-10T10:40:18.548Z,43.21
2018-11-10T10:42:49.672Z,40.92
2018-11-10T10:45:21.912Z,40.06
2018-11-10T10:47:51.113Z,39.33
2018-11-10T10:50:21.391Z,41.89
2018-11-10T10:52:50.592Z,39.03
2018-11-10T10:55:20.327Z,38.84
2018-11-10T10:57:50.309Z,38.73
2018-11-10T11:00:24.894Z,38.52
2018-11-10T11:02:56.166Z,39.46
2018-11-10T11:05:30.658Z,36.13
2018-11-10T11:07:59.872Z,40.58
2018-11-10T11:10:29.110Z,39.61
2018-11-10T11:12:58.310Z,41.46
2018-11-10T11:15:27.625Z,40.40
2018-11-10T11:17:56.734Z,40.92
2018-11-10T11:20:25.946Z,40.34
2018-11-10T11:22:55.207Z,40.85
2018-11-10T11:25:24.437Z,41.60
2018-11-10T11:27:53.731Z,43.23
2018-11-10T11:30:23.049Z,45.09
2018-11-10T11:32:52.322Z,43.60
2018-11-10T11:35:21.580Z,44.42
2018-11-10T11:37:50.796Z,43.03
2018-11-10T11:40:19.911Z,43.03
2018-11-10T11:42:49.113Z,43.50
2018-11-10T11:45:18.304Z,43.74
2018-11-10T11:47:47.487Z,44.67
2018-11-10T11:50:17.084Z,48.11
2018-11-10T11:52:46.634Z,46.52
2018-11-10T11:55:16.149Z,48.07
2018-11-10T11:57:45.405Z,44.48
2018-11-10T12:00:15.879Z,45.14
2018-11-10T12:02:45.989Z,49.17
2018-11-10T12:05:17.199Z,51.85
2018-11-10T12:07:46.922Z,53.08
2018-11-10T12:10:16.939Z,52.17
2018-11-10T12:12:46.399Z,52.68
2018-11-10T12:15:16.674Z,53.24
2018-11-10T12:17:45.800Z,51.13
2018-11-10T12:20:16.027Z,50.68
2018-11-10T12:22:45.240Z,48.72
2018-11-10T12:25:14.914Z,48.84
2018-11-10T12:27:44.614Z,45.96
2018-11-10T12:30:13.922Z,43.99
2018-11-10T12:32:43.993Z,43.88
2018-11-10T12:35:14.098Z,45.55
2018-11-10T12:37:43.535Z,44.81
2018-11-10T12:40:13.711Z,43.09
2018-11-10T12:42:43.194Z,46.05
2018-11-10T12:45:13.421Z,44.91
2018-11-10T12:47:43.177Z,45.94
2018-11-10T12:50:13.580Z,48.53
2018-11-10T12:52:43.644Z,48.24
2018-11-10T12:55:14.207Z,49.62
2018-11-10T12:57:44.055Z,49.40
2018-11-10T13:00:14.588Z,52.04
2018-11-10T13:02:44.141Z,49.86
2018-11-10T13:05:13.681Z,47.90
2018-11-10T13:07:44.522Z,47.54
2018-11-10T13:10:13.710Z,48.79
2018-11-10T13:12:43.842Z,50.09
2018-11-10T13:15:13.065Z,48.68
2018-11-10T13:17:42.297Z,50.85
2018-11-10T13:20:13.463Z,53.49
2018-11-10T13:22:42.703Z,52.72
2018-11-10T13:25:12.799Z,51.61
2018-11-10T13:27:42.033Z,51.23
2018-11-10T13:30:13.124Z,49.12
2018-11-10T13:32:42.315Z,48.14
2018-11-10T13:35:11.835Z,48.80
2018-11-10T13:37:41.027Z,50.47
2018-11-10T13:40:10.694Z,49.52
2018-11-10T13:42:39.884Z,53.58
2018-11-10T13:45:11.234Z,54.97
2018-11-10T13:47:40.424Z,55.97
2018-11-10T13:50:11.091Z,56.94
2018-11-10T13:52:41.482Z,57.76
2018-11-10T13:55:10.594Z,54.71
2018-11-10T13:57:40.051Z,54.87
2018-11-10T14:00:13.410Z,55.47
2018-11-10T14:02:42.802Z,60.06
2018-11-10T14:05:12.574Z,62.40
2018-11-10T14:07:41.839Z,63.65
2018-11-10T14:10:13.459Z,63.71
2018-11-10T14:12:43.568Z,62.43
2018-11-10T14:15:12.740Z,62.03
2018-11-10T14:17:42.563Z,61.04
2018-11-10T14:20:13.799Z,60.77
2018-11-10T14:22:43.169Z,62.20
2018-11-10T14:25:13.522Z,62.38
2018-11-10T14:27:43.407Z,63.59
2018-11-10T14:30:14.466Z,66.53
2018-11-10T14:32:44.122Z,67.57
2018-11-10T14:35:13.642Z,67.98
2018-11-10T14:37:42.860Z,69.85
2018-11-10T14:40:13.523Z,70.46
2018-11-10T14:42:43.273Z,70.64
2018-11-10T14:45:13.754Z,70.82
2018-11-10T14:47:43.508Z,70.88
2018-11-10T14:50:13.559Z,71.33
2018-11-10T14:52:43.167Z,72.68
2018-11-10T14:55:12.882Z,72.74
2018-11-10T14:57:42.419Z,73.16
2018-11-10T15:00:16.253Z,74.51
2018-11-10T15:02:45.463Z,75.45
2018-11-10T15:05:14.866Z,75.14
2018-11-10T15:07:44.538Z,75.57
2018-11-10T15:10:14.990Z,76.20
2018-11-10T15:12:44.802Z,77.03
2018-11-10T15:15:14.963Z,78.53
2018-11-10T15:17:44.501Z,79.44
2018-11-10T15:20:15.023Z,80.06
2018-11-10T15:22:44.316Z,81.25
2018-11-10T15:25:14.926Z,83.61
2018-11-10T15:27:44.056Z,83.37
2018-11-10T15:30:14.857Z,84.34
2018-11-10T15:32:44.984Z,85.39
2018-11-10T15:35:15.354Z,86.06
2018-11-10T15:37:45.955Z,87.74
2018-11-10T15:40:15.805Z,88.12
2018-11-10T15:42:45.056Z,89.16
2018-11-10T15:45:15.071Z,89.61
2018-11-10T15:47:44.575Z,90.78
2018-11-10T15:50:15.037Z,91.63
2018-11-10T15:52:44.218Z,92.17
2018-11-10T15:55:13.895Z,92.36
2018-11-10T15:57:43.518Z,91.12
2018-11-10T16:00:15.314Z,91.90
2018-11-10T16:02:44.633Z,92.89
2018-11-10T16:05:14.476Z,95.03
2018-11-10T16:07:43.671Z,95.80
2018-11-10T16:10:13.016Z,96.05
2018-11-10T16:12:42.505Z,95.95
2018-11-10T16:15:14.039Z,95.88
2018-11-10T16:17:43.370Z,96.61
2018-11-10T16:20:17.075Z,97.06
2018-11-10T16:22:47.723Z,97.46
2018-11-10T16:25:17.363Z,97.30
2018-11-10T16:27:46.866Z,97.37
2018-11-10T16:30:17.275Z,97.21
2018-11-10T16:32:46.872Z,97.41
2018-11-10T16:35:16.130Z,97.04
2018-11-10T16:37:45.343Z,97.95
2018-11-10T16:40:16.453Z,98.38
2018-11-10T16:42:46.543Z,99.11
2018-11-10T16:45:16.482Z,99.31
2018-11-10T16:47:45.700Z,98.37
2018-11-10T16:50:14.970Z,98.63
2018-11-10T16:52:44.886Z,99.55
2018-11-10T16:55:14.181Z,99.30
2018-11-10T16:57:43.310Z,100.00
2018-11-10T17:00:15.771Z,100.00
2018-11-10T17:02:45.017Z,100.00
2018-11-10T17:05:14.242Z,100.00
2018-11-10T17:07:43.468Z,100.00
2018-11-10T17:10:14.057Z,100.00
2018-11-10T17:12:43.363Z,100.00
2018-11-10T17:15:12.642Z,100.00
2018-11-10T17:17:41.860Z,100.00
2018-11-10T17:20:13.609Z,100.00
2018-11-10T17:22:42.845Z,100.00
2018-11-10T17:25:12.651Z,100.00
2018-11-10T17:27:42.334Z,100.00
2018-11-10T17:30:19.223Z,100.00
2018-11-10T17:32:48.292Z,100.00
2018-11-10T17:35:17.619Z,100.00
2018-11-10T17:37:46.874Z,100.00
2018-11-10T17:40:16.486Z,100.00
2018-11-10T17:42:45.630Z,100.00
2018-11-10T17:45:16.234Z,100.00
2018-11-10T17:47:45.658Z,100.00
2018-11-10T17:50:16.312Z,100.00
2018-11-10T17:52:45.607Z,100.00
2018-11-10T17:55:15.825Z,100.00
2018-11-10T17:57:46.791Z,100.00
2018-11-10T18:00:15.990Z,100.00
2018-11-10T18:02:45.228Z,100.00
2018-11-10T18:05:15.479Z,100.00
2018-11-10T18:07:44.910Z,100.00
2018-11-10T18:10:16.863Z,100.00
2018-11-10T18:12:46.516Z,100.00
2018-11-10T18:15:16.006Z,100.00
2018-11-10T18:17:45.540Z,100.00
2018-11-10T18:20:16.032Z,100.00
2018-11-10T18:22:45.554Z,100.00
2018-11-10T18:25:14.906Z,100.00
2018-11-10T18:27:44.117Z,100.00
2018-11-10T18:30:14.470Z,100.00
2018-11-10T18:32:44.265Z,100.00
2018-11-10T18:35:14.895Z,100.00
2018-11-10T18:37:44.175Z,100.00
2018-11-10T18:40:13.401Z,100.00
2018-11-10T18:42:42.625Z,100.00
2018-11-10T18:45:12.535Z,100.00
2018-11-10T18:47:42.191Z,100.00
2018-11-10T18:50:14.016Z,100.00
2018-11-10T18:52:43.418Z,100.00
2018-11-10T18:55:13.340Z,100.00
2018-11-10T18:57:42.859Z,100.00
2018-11-10T19:00:14.068Z,100.00
2018-11-10T19:02:43.434Z,100.00
2018-11-10T19:05:13.935Z,100.00
2018-11-10T19:07:43.231Z,100.00
2018-11-10T19:10:13.770Z,100.00
2018-11-10T19:12:43.341Z,100.00
2018-11-10T19:15:16.636Z,100.00
2018-11-10T19:17:45.830Z,100.00
2018-11-10T19:20:15.624Z,100.00
2018-11-10T19:22:44.842Z,100.00
2018-11-10T19:25:14.664Z,100.00
2018-11-10T19:27:44.122Z,100.00
2018-11-10T19:30:15.106Z,100.00
2018-11-10T19:32:44.878Z,100.00
2018-11-10T19:35:14.566Z,100.00
2018-11-10T19:37:43.995Z,100.00
2018-11-10T19:40:13.293Z,100.00
2018-11-10T19:42:44.745Z,100.00
2018-11-10T19:45:14.106Z,100.00
2018-11-10T19:47:44.325Z,100.00
2018-11-10T19:50:14.278Z,100.00
2018-11-10T19:52:43.763Z,100.00
2018-11-10T19:55:15.158Z,100.00
2018-11-10T19:57:44.518Z,100.00
2018-11-10T20:00:18.546Z,100.00
2018-11-10T20:02:47.968Z,100.00
2018-11-10T20:05:17.610Z,100.00
2018-11-10T20:07:46.938Z,100.00
2018-11-10T20:10:16.222Z,100.00
2018-11-10T20:12:45.846Z,100.00
2018-11-10T20:15:15.819Z,100.00
2018-11-10T20:17:45.360Z,100.00
2018-11-10T20:20:15.846Z,100.00
2018-11-10T20:22:45.267Z,100.00
2018-11-10T20:25:15.811Z,100.00
2018-11-10T20:27:44.994Z,100.00
2018-11-10T20:30:16.934Z,100.00
2018-11-10T20:32:46.289Z,100.00
2018-11-10T20:35:15.483Z,100.00
2018-11-10T20:37:45.258Z,100.00
2018-11-10T20:40:15.209Z,100.00
2018-11-10T20:42:44.481Z,100.00
2018-11-10T20:45:17.037Z,100.00
2018-11-10T20:47:46.249Z,100.00
2018-11-10T20:50:15.788Z,100.00
2018-11-10T20:52:45.004Z,100.00
2018-11-10T20:55:14.558Z,100.00
2018-11-10T20:57:43.751Z,100.00
2018-11-10T21:00:14.965Z,100.00
2018-11-10T21:02:44.532Z,100.00
2018-11-10T21:05:14.412Z,100.00
2018-11-10T21:07:43.645Z,100.00
2018-11-10T21:10:14.861Z,100.00
2018-11-10T21:12:44.925Z,100.00
2018-11-10T21:15:14.534Z,100.00
2018-11-10T21:17:43.863Z,100.00
2018-11-10T21:20:13.471Z,100.00
2018-11-10T21:22:42.995Z,100.00
2018-11-10T21:25:14.143Z,100.00
2018-11-10T21:27:43.578Z,100.00
2018-11-10T21:30:14.506Z,100.00
2018-11-10T21:32:45.363Z,100.00
2018-11-10T21:35:14.685Z,100.00
2018-11-10T21:37:43.793Z,100.00
2018-11-10T21:40:14.545Z,100.00
2018-11-10T21:42:44.120Z,100.00
2018-11-10T21:45:14.204Z,100.00
2018-11-10T21:47:43.606Z,100.00
2018-11-10T21:50:14.971Z,100.00
2018-11-10T21:52:44.792Z,100.00
2018-11-10T21:55:16.179Z,100.00
2018-11-10T21:57:45.894Z,100.00
2018-11-10T22:00:17.303Z,100.00
2018-11-10T22:02:46.920Z,100.00
2018-11-10T22:05:16.034Z,100.00
2018-11-10T22:07:45.299Z,100.00
2018-11-10T22:10:16.658Z,100.00
2018-11-10T22:12:46.175Z,100.00
2018-11-10T22:15:17.699Z,100.00
2018-11-10T22:17:47.078Z,100.00
2018-11-10T22:20:18.686Z,100.00
2018-11-10T22:22:47.944Z,100.00
2018-11-10T22:25:47.375Z,100.00
2018-11-10T22:28:17.559Z,100.00
2018-11-10T22:30:46.813Z,100.00
2018-11-10T22:33:16.020Z,100.00
2018-11-10T22:35:45.298Z,100.00
2018-11-10T22:38:14.507Z,100.00
2018-11-10T22:40:43.725Z,100.00
2018-11-10T22:43:12.919Z,100.00
2018-11-10T22:45:42.119Z,100.00
2018-11-10T22:48:11.317Z,100.00
2018-11-10T22:50:40.530Z,100.00
2018-11-10T22:53:09.717Z,100.00
2018-11-10T22:55:38.923Z,100.00
2018-11-10T22:58:08.154Z,100.00
2018-11-10T23:00:41.760Z,100.00
2018-11-10T23:03:11.015Z,100.00
2018-11-10T23:05:40.490Z,100.00
2018-11-10T23:08:09.699Z,100.00
2018-11-10T23:10:38.913Z,100.00
2018-11-10T23:13:08.128Z,100.00
2018-11-10T23:15:37.319Z,100.00
2018-11-10T23:18:06.517Z,100.00
2018-11-10T23:20:35.739Z,100.00
2018-11-10T23:23:05.627Z,100.00
2018-11-10T23:25:34.855Z,100.00
2018-11-10T23:28:04.070Z,100.00
2018-11-10T23:30:33.284Z,100.00
2018-11-10T23:33:02.473Z,100.00
2018-11-10T23:35:31.688Z,100.00
2018-11-10T23:38:00.952Z,100.00
2018-11-10T23:40:30.171Z,100.00
2018-11-10T23:42:59.366Z,100.00
2018-11-10T23:45:28.587Z,100.00
2018-11-10T23:47:57.770Z,100.00
2018-11-10T23:50:26.974Z,100.00
2018-11-10T23:52:56.193Z,100.00
2018-11-10T23:55:25.411Z,100.00
2018-11-10T23:57:54.626Z,100.00
